sensor_id;sensor_type;location;lat;lon;timestamp;P1;durP1;ratioP1;P2;durP2;ratioP2
37309;SDS011;23195;47.744;7.358;2023-07-29T00:01:52;2.37;;;2.17;;
37309;SDS011;23195;47.744;7.358;2023-07-29T00:04:19;4.67;;;2.40;;
37309;SDS011;23195;47.744;7.358;2023-07-29T00:06:45;4.90;;;2.43;;
37309;SDS011;23195;47.744;7.358;2023-07-29T00:09:11;5.17;;;2.17;;
37309;SDS011;23195;47.744;7.358;2023-07-29T00:11:37;2.20;;;1.87;;
37309;SDS011;23195;47.744;7.358;2023-07-29T00:14:03;3.27;;;2.13;;
37309;SDS011;23195;47.744;7.358;2023-07-29T00:16:31;2.47;;;2.27;;
37309;SDS011;23195;47.744;7.358;2023-07-29T00:18:57;2.73;;;2.10;;
37309;SDS011;23195;47.744;7.358;2023-07-29T00:21:23;3.37;;;2.47;;
37309;SDS011;23195;47.744;7.358;2023-07-29T00:23:49;2.73;;;2.30;;
37309;SDS011;23195;47.744;7.358;2023-07-29T00:26:14;2.77;;;2.13;;
37309;SDS011;23195;47.744;7.358;2023-07-29T00:28:43;4.93;;;2.57;;
37309;SDS011;23195;47.744;7.358;2023-07-29T00:31:09;3.60;;;2.10;;
37309;SDS011;23195;47.744;7.358;2023-07-29T00:33:35;4.07;;;2.63;;
37309;SDS011;23195;47.744;7.358;2023-07-29T00:36:04;3.83;;;2.50;;
37309;SDS011;23195;47.744;7.358;2023-07-29T00:38:30;2.40;;;2.00;;
37309;SDS011;23195;47.744;7.358;2023-07-29T00:40:56;2.37;;;2.17;;
37309;SDS011;23195;47.744;7.358;2023-07-29T00:43:23;3.30;;;2.43;;
37309;SDS011;23195;47.744;7.358;2023-07-29T00:45:49;3.20;;;2.20;;
37309;SDS011;23195;47.744;7.358;2023-07-29T00:48:15;3.10;;;2.27;;
37309;SDS011;23195;47.744;7.358;2023-07-29T00:50:42;4.87;;;2.27;;
37309;SDS011;23195;47.744;7.358;2023-07-29T00:53:11;2.63;;;2.27;;
37309;SDS011;23195;47.744;7.358;2023-07-29T00:55:37;3.63;;;2.30;;
37309;SDS011;23195;47.744;7.358;2023-07-29T00:58:10;3.17;;;2.20;;
37309;SDS011;23195;47.744;7.358;2023-07-29T01:00:36;5.50;;;2.77;;
37309;SDS011;23195;47.744;7.358;2023-07-29T01:03:05;4.67;;;2.20;;
37309;SDS011;23195;47.744;7.358;2023-07-29T01:05:32;2.50;;;2.23;;
37309;SDS011;23195;47.744;7.358;2023-07-29T01:08:37;3.63;;;2.60;;
37309;SDS011;23195;47.744;7.358;2023-07-29T01:11:33;3.10;;;2.33;;
37309;SDS011;23195;47.744;7.358;2023-07-29T01:16:55;4.63;;;2.30;;
37309;SDS011;23195;47.744;7.358;2023-07-29T01:19:33;2.30;;;2.10;;
37309;SDS011;23195;47.744;7.358;2023-07-29T01:22:22;3.50;;;2.60;;
37309;SDS011;23195;47.744;7.358;2023-07-29T01:24:49;2.97;;;2.67;;
37309;SDS011;23195;47.744;7.358;2023-07-29T01:27:15;3.53;;;2.37;;
37309;SDS011;23195;47.744;7.358;2023-07-29T01:29:41;3.73;;;2.27;;
37309;SDS011;23195;47.744;7.358;2023-07-29T01:32:10;3.57;;;2.57;;
37309;SDS011;23195;47.744;7.358;2023-07-29T01:34:45;3.07;;;2.40;;
37309;SDS011;23195;47.744;7.358;2023-07-29T01:37:19;5.00;;;2.50;;
37309;SDS011;23195;47.744;7.358;2023-07-29T01:39:50;3.53;;;2.60;;
37309;SDS011;23195;47.744;7.358;2023-07-29T01:42:22;2.93;;;2.30;;
37309;SDS011;23195;47.744;7.358;2023-07-29T01:44:48;3.27;;;2.70;;
37309;SDS011;23195;47.744;7.358;2023-07-29T01:47:15;3.63;;;2.50;;
37309;SDS011;23195;47.744;7.358;2023-07-29T01:49:41;2.80;;;2.50;;
37309;SDS011;23195;47.744;7.358;2023-07-29T01:52:09;3.50;;;2.60;;
37309;SDS011;23195;47.744;7.358;2023-07-29T01:54:35;4.10;;;2.67;;
37309;SDS011;23195;47.744;7.358;2023-07-29T01:57:07;3.40;;;2.50;;
37309;SDS011;23195;47.744;7.358;2023-07-29T01:59:33;2.97;;;2.60;;
37309;SDS011;23195;47.744;7.358;2023-07-29T02:01:59;3.13;;;2.47;;
37309;SDS011;23195;47.744;7.358;2023-07-29T02:04:28;2.97;;;2.63;;
37309;SDS011;23195;47.744;7.358;2023-07-29T02:06:54;3.30;;;2.43;;
37309;SDS011;23195;47.744;7.358;2023-07-29T02:09:23;3.20;;;2.50;;
37309;SDS011;23195;47.744;7.358;2023-07-29T02:11:58;5.90;;;2.90;;
37309;SDS011;23195;47.744;7.358;2023-07-29T02:14:28;4.90;;;2.77;;
37309;SDS011;23195;47.744;7.358;2023-07-29T02:16:56;3.63;;;2.90;;
37309;SDS011;23195;47.744;7.358;2023-07-29T02:19:23;3.40;;;3.00;;
37309;SDS011;23195;47.744;7.358;2023-07-29T02:21:48;3.30;;;3.00;;
37309;SDS011;23195;47.744;7.358;2023-07-29T02:24:14;3.10;;;2.80;;
37309;SDS011;23195;47.744;7.358;2023-07-29T02:26:40;3.10;;;2.80;;
37309;SDS011;23195;47.744;7.358;2023-07-29T02:29:07;3.07;;;2.70;;
37309;SDS011;23195;47.744;7.358;2023-07-29T02:31:32;2.70;;;2.50;;
37309;SDS011;23195;47.744;7.358;2023-07-29T02:34:00;3.17;;;2.57;;
37309;SDS011;23195;47.744;7.358;2023-07-29T02:36:26;3.27;;;2.83;;
37309;SDS011;23195;47.744;7.358;2023-07-29T02:38:52;3.20;;;2.70;;
37309;SDS011;23195;47.744;7.358;2023-07-29T02:41:18;6.53;;;3.77;;
37309;SDS011;23195;47.744;7.358;2023-07-29T02:43:47;3.20;;;2.90;;
37309;SDS011;23195;47.744;7.358;2023-07-29T02:46:14;5.50;;;2.90;;
37309;SDS011;23195;47.744;7.358;2023-07-29T02:48:41;3.37;;;2.80;;
37309;SDS011;23195;47.744;7.358;2023-07-29T02:51:07;3.30;;;2.80;;
37309;SDS011;23195;47.744;7.358;2023-07-29T02:53:33;3.23;;;2.83;;
37309;SDS011;23195;47.744;7.358;2023-07-29T02:56:02;3.13;;;2.80;;
37309;SDS011;23195;47.744;7.358;2023-07-29T02:58:28;3.30;;;2.73;;
37309;SDS011;23195;47.744;7.358;2023-07-29T03:01:06;4.40;;;3.13;;
37309;SDS011;23195;47.744;7.358;2023-07-29T03:03:35;6.57;;;2.90;;
37309;SDS011;23195;47.744;7.358;2023-07-29T03:06:04;3.70;;;2.63;;
37309;SDS011;23195;47.744;7.358;2023-07-29T03:08:32;4.13;;;3.10;;
37309;SDS011;23195;47.744;7.358;2023-07-29T03:11:04;4.90;;;3.13;;
37309;SDS011;23195;47.744;7.358;2023-07-29T03:13:34;5.10;;;2.77;;
37309;SDS011;23195;47.744;7.358;2023-07-29T03:16:07;3.30;;;2.97;;
37309;SDS011;23195;47.744;7.358;2023-07-29T03:18:34;4.70;;;3.00;;
37309;SDS011;23195;47.744;7.358;2023-07-29T03:21:03;3.07;;;2.77;;
37309;SDS011;23195;47.744;7.358;2023-07-29T03:23:30;6.27;;;2.80;;
37309;SDS011;23195;47.744;7.358;2023-07-29T03:26:00;4.37;;;2.87;;
37309;SDS011;23195;47.744;7.358;2023-07-29T03:28:29;3.47;;;2.80;;
37309;SDS011;23195;47.744;7.358;2023-07-29T03:30:59;4.30;;;2.80;;
37309;SDS011;23195;47.744;7.358;2023-07-29T03:33:37;3.23;;;2.63;;
37309;SDS011;23195;47.744;7.358;2023-07-29T03:36:25;3.13;;;2.83;;
37309;SDS011;23195;47.744;7.358;2023-07-29T03:38:51;4.23;;;2.70;;
37309;SDS011;23195;47.744;7.358;2023-07-29T03:41:17;3.10;;;2.80;;
37309;SDS011;23195;47.744;7.358;2023-07-29T03:43:43;4.43;;;2.60;;
37309;SDS011;23195;47.744;7.358;2023-07-29T03:46:09;6.03;;;2.93;;
37309;SDS011;23195;47.744;7.358;2023-07-29T03:48:35;2.90;;;2.70;;
37309;SDS011;23195;47.744;7.358;2023-07-29T03:51:00;4.70;;;2.83;;
37309;SDS011;23195;47.744;7.358;2023-07-29T03:53:26;5.17;;;2.90;;
37309;SDS011;23195;47.744;7.358;2023-07-29T03:55:54;3.87;;;2.80;;
37309;SDS011;23195;47.744;7.358;2023-07-29T03:58:21;3.07;;;2.77;;
37309;SDS011;23195;47.744;7.358;2023-07-29T04:00:47;3.30;;;2.73;;
37309;SDS011;23195;47.744;7.358;2023-07-29T04:03:13;6.20;;;3.20;;
37309;SDS011;23195;47.744;7.358;2023-07-29T04:05:39;4.00;;;2.80;;
37309;SDS011;23195;47.744;7.358;2023-07-29T04:08:05;5.30;;;2.77;;
37309;SDS011;23195;47.744;7.358;2023-07-29T04:10:34;3.33;;;3.00;;
37309;SDS011;23195;47.744;7.358;2023-07-29T04:13:00;3.23;;;2.90;;
37309;SDS011;23195;47.744;7.358;2023-07-29T04:15:26;6.07;;;3.10;;
37309;SDS011;23195;47.744;7.358;2023-07-29T04:17:51;3.60;;;2.77;;
37309;SDS011;23195;47.744;7.358;2023-07-29T04:20:17;4.60;;;3.00;;
37309;SDS011;23195;47.744;7.358;2023-07-29T04:22:43;3.80;;;2.97;;
37309;SDS011;23195;47.744;7.358;2023-07-29T04:25:09;4.43;;;2.57;;
37309;SDS011;23195;47.744;7.358;2023-07-29T04:27:34;4.80;;;2.73;;
37309;SDS011;23195;47.744;7.358;2023-07-29T04:30:00;3.00;;;2.70;;
37309;SDS011;23195;47.744;7.358;2023-07-29T04:32:26;2.83;;;2.57;;
37309;SDS011;23195;47.744;7.358;2023-07-29T04:34:52;2.63;;;2.43;;
37309;SDS011;23195;47.744;7.358;2023-07-29T04:37:17;3.07;;;2.40;;
37309;SDS011;23195;47.744;7.358;2023-07-29T04:39:43;4.87;;;2.67;;
37309;SDS011;23195;47.744;7.358;2023-07-29T04:42:09;2.60;;;2.40;;
37309;SDS011;23195;47.744;7.358;2023-07-29T04:44:35;3.60;;;2.50;;
37309;SDS011;23195;47.744;7.358;2023-07-29T04:47:01;3.03;;;2.30;;
37309;SDS011;23195;47.744;7.358;2023-07-29T04:49:27;5.50;;;2.73;;
37309;SDS011;23195;47.744;7.358;2023-07-29T04:51:53;2.97;;;2.40;;
37309;SDS011;23195;47.744;7.358;2023-07-29T04:54:19;3.70;;;2.10;;
37309;SDS011;23195;47.744;7.358;2023-07-29T04:56:46;2.17;;;1.93;;
37309;SDS011;23195;47.744;7.358;2023-07-29T04:59:11;2.53;;;2.33;;
37309;SDS011;23195;47.744;7.358;2023-07-29T05:01:38;2.47;;;2.00;;
37309;SDS011;23195;47.744;7.358;2023-07-29T05:04:04;2.80;;;2.30;;
37309;SDS011;23195;47.744;7.358;2023-07-29T05:06:29;2.37;;;2.17;;
37309;SDS011;23195;47.744;7.358;2023-07-29T05:08:58;2.90;;;1.90;;
37309;SDS011;23195;47.744;7.358;2023-07-29T05:11:37;2.47;;;2.07;;
37309;SDS011;23195;47.744;7.358;2023-07-29T05:14:02;2.77;;;2.17;;
37309;SDS011;23195;47.744;7.358;2023-07-29T05:16:37;2.53;;;2.30;;
37309;SDS011;23195;47.744;7.358;2023-07-29T05:19:02;2.67;;;2.30;;
37309;SDS011;23195;47.744;7.358;2023-07-29T05:21:29;2.23;;;1.97;;
37309;SDS011;23195;47.744;7.358;2023-07-29T05:23:55;2.27;;;2.07;;
37309;SDS011;23195;47.744;7.358;2023-07-29T05:26:21;2.63;;;2.03;;
37309;SDS011;23195;47.744;7.358;2023-07-29T05:28:47;4.67;;;2.07;;
37309;SDS011;23195;47.744;7.358;2023-07-29T05:31:13;3.40;;;2.07;;
37309;SDS011;23195;47.744;7.358;2023-07-29T05:33:39;3.10;;;1.70;;
37309;SDS011;23195;47.744;7.358;2023-07-29T05:36:05;2.63;;;1.73;;
37309;SDS011;23195;47.744;7.358;2023-07-29T05:38:30;2.77;;;1.90;;
37309;SDS011;23195;47.744;7.358;2023-07-29T05:40:59;3.60;;;1.70;;
37309;SDS011;23195;47.744;7.358;2023-07-29T05:43:26;2.90;;;1.80;;
37309;SDS011;23195;47.744;7.358;2023-07-29T05:45:52;2.73;;;1.83;;
37309;SDS011;23195;47.744;7.358;2023-07-29T05:48:19;2.40;;;1.97;;
37309;SDS011;23195;47.744;7.358;2023-07-29T05:50:47;2.80;;;1.80;;
37309;SDS011;23195;47.744;7.358;2023-07-29T05:53:16;2.60;;;1.90;;
37309;SDS011;23195;47.744;7.358;2023-07-29T05:55:42;2.00;;;1.70;;
37309;SDS011;23195;47.744;7.358;2023-07-29T05:58:07;2.77;;;1.97;;
37309;SDS011;23195;47.744;7.358;2023-07-29T06:00:36;2.43;;;1.73;;
37309;SDS011;23195;47.744;7.358;2023-07-29T06:03:03;2.10;;;1.90;;
37309;SDS011;23195;47.744;7.358;2023-07-29T06:05:29;1.93;;;1.77;;
37309;SDS011;23195;47.744;7.358;2023-07-29T06:07:58;2.43;;;1.70;;
37309;SDS011;23195;47.744;7.358;2023-07-29T06:10:27;4.00;;;1.90;;
37309;SDS011;23195;47.744;7.358;2023-07-29T06:12:52;4.07;;;2.30;;
37309;SDS011;23195;47.744;7.358;2023-07-29T06:15:18;2.57;;;1.60;;
37309;SDS011;23195;47.744;7.358;2023-07-29T06:17:47;1.80;;;1.70;;
37309;SDS011;23195;47.744;7.358;2023-07-29T06:20:16;3.90;;;2.10;;
37309;SDS011;23195;47.744;7.358;2023-07-29T06:22:42;2.10;;;1.53;;
37309;SDS011;23195;47.744;7.358;2023-07-29T06:28:37;5.10;;;1.80;;
37309;SDS011;23195;47.744;7.358;2023-07-29T06:31:03;2.30;;;2.00;;
37309;SDS011;23195;47.744;7.358;2023-07-29T06:33:29;3.90;;;1.93;;
37309;SDS011;23195;47.744;7.358;2023-07-29T06:35:54;2.13;;;1.80;;
37309;SDS011;23195;47.744;7.358;2023-07-29T06:38:20;3.50;;;2.00;;
37309;SDS011;23195;47.744;7.358;2023-07-29T06:40:51;2.70;;;1.70;;
37309;SDS011;23195;47.744;7.358;2023-07-29T06:43:17;1.70;;;1.43;;
37309;SDS011;23195;47.744;7.358;2023-07-29T06:45:43;3.17;;;1.80;;
37309;SDS011;23195;47.744;7.358;2023-07-29T06:48:09;2.87;;;1.93;;
37309;SDS011;23195;47.744;7.358;2023-07-29T06:50:35;2.50;;;1.67;;
37309;SDS011;23195;47.744;7.358;2023-07-29T06:53:01;3.00;;;1.50;;
37309;SDS011;23195;47.744;7.358;2023-07-29T06:55:26;2.27;;;1.40;;
37309;SDS011;23195;47.744;7.358;2023-07-29T06:57:52;2.73;;;1.70;;
37309;SDS011;23195;47.744;7.358;2023-07-29T07:00:18;3.30;;;1.70;;
37309;SDS011;23195;47.744;7.358;2023-07-29T07:02:44;2.63;;;1.73;;
37309;SDS011;23195;47.744;7.358;2023-07-29T07:05:09;4.77;;;1.90;;
37309;SDS011;23195;47.744;7.358;2023-07-29T07:07:35;2.77;;;1.67;;
37309;SDS011;23195;47.744;7.358;2023-07-29T07:10:02;4.77;;;1.77;;
37309;SDS011;23195;47.744;7.358;2023-07-29T07:12:29;2.30;;;1.70;;
37309;SDS011;23195;47.744;7.358;2023-07-29T07:14:54;1.80;;;1.60;;
37309;SDS011;23195;47.744;7.358;2023-07-29T07:17:20;1.50;;;1.40;;
37309;SDS011;23195;47.744;7.358;2023-07-29T07:19:46;3.13;;;1.47;;
37309;SDS011;23195;47.744;7.358;2023-07-29T07:28:31;1.50;;;1.37;;
37309;SDS011;23195;47.744;7.358;2023-07-29T07:30:57;1.57;;;1.30;;
37309;SDS011;23195;47.744;7.358;2023-07-29T07:33:36;1.50;;;1.27;;
37309;SDS011;23195;47.744;7.358;2023-07-29T07:36:04;1.60;;;1.30;;
37309;SDS011;23195;47.744;7.358;2023-07-29T07:38:47;1.67;;;1.37;;
37309;SDS011;23195;47.744;7.358;2023-07-29T07:41:16;1.80;;;1.70;;
37309;SDS011;23195;47.744;7.358;2023-07-29T07:43:42;1.73;;;1.30;;
37309;SDS011;23195;47.744;7.358;2023-07-29T07:46:07;1.43;;;1.33;;
37309;SDS011;23195;47.744;7.358;2023-07-29T07:48:33;1.30;;;1.20;;
37309;SDS011;23195;47.744;7.358;2023-07-29T07:51:09;2.77;;;1.30;;
37309;SDS011;23195;47.744;7.358;2023-07-29T07:53:41;2.33;;;1.33;;
37309;SDS011;23195;47.744;7.358;2023-07-29T07:56:16;2.80;;;1.40;;
37309;SDS011;23195;47.744;7.358;2023-07-29T07:58:42;2.27;;;1.53;;
37309;SDS011;23195;47.744;7.358;2023-07-29T08:01:14;2.13;;;1.27;;
37309;SDS011;23195;47.744;7.358;2023-07-29T08:03:39;2.60;;;1.13;;
37309;SDS011;23195;47.744;7.358;2023-07-29T08:06:17;2.23;;;1.40;;
37309;SDS011;23195;47.744;7.358;2023-07-29T08:08:43;2.73;;;1.57;;
37309;SDS011;23195;47.744;7.358;2023-07-29T08:11:18;3.67;;;1.30;;
37309;SDS011;23195;47.744;7.358;2023-07-29T08:13:51;2.40;;;1.50;;
37309;SDS011;23195;47.744;7.358;2023-07-29T08:16:20;1.53;;;1.43;;
37309;SDS011;23195;47.744;7.358;2023-07-29T08:18:46;2.23;;;1.47;;
37309;SDS011;23195;47.744;7.358;2023-07-29T08:21:18;1.73;;;1.63;;
37309;SDS011;23195;47.744;7.358;2023-07-29T08:23:46;2.50;;;1.47;;
37309;SDS011;23195;47.744;7.358;2023-07-29T08:26:14;2.30;;;1.60;;
37309;SDS011;23195;47.744;7.358;2023-07-29T08:28:40;3.00;;;1.60;;
37309;SDS011;23195;47.744;7.358;2023-07-29T08:31:05;2.33;;;1.60;;
37309;SDS011;23195;47.744;7.358;2023-07-29T08:33:32;4.20;;;1.53;;
37309;SDS011;23195;47.744;7.358;2023-07-29T08:36:01;4.33;;;1.70;;
37309;SDS011;23195;47.744;7.358;2023-07-29T08:38:27;1.50;;;1.40;;
37309;SDS011;23195;47.744;7.358;2023-07-29T08:41:16;1.60;;;1.50;;
37309;SDS011;23195;47.744;7.358;2023-07-29T08:43:59;2.13;;;1.40;;
37309;SDS011;23195;47.744;7.358;2023-07-29T08:46:37;2.27;;;1.40;;
37309;SDS011;23195;47.744;7.358;2023-07-29T08:49:04;1.70;;;1.50;;
37309;SDS011;23195;47.744;7.358;2023-07-29T08:51:31;1.60;;;1.50;;
37309;SDS011;23195;47.744;7.358;2023-07-29T08:53:58;2.50;;;1.77;;
37309;SDS011;23195;47.744;7.358;2023-07-29T08:56:24;2.53;;;1.57;;
37309;SDS011;23195;47.744;7.358;2023-07-29T08:58:50;1.60;;;1.50;;
37309;SDS011;23195;47.744;7.358;2023-07-29T09:01:17;2.50;;;1.40;;
37309;SDS011;23195;47.744;7.358;2023-07-29T09:03:49;1.53;;;1.43;;
37309;SDS011;23195;47.744;7.358;2023-07-29T09:06:15;1.60;;;1.50;;
37309;SDS011;23195;47.744;7.358;2023-07-29T09:08:42;2.57;;;1.50;;
37309;SDS011;23195;47.744;7.358;2023-07-29T09:11:09;2.80;;;1.93;;
37309;SDS011;23195;47.744;7.358;2023-07-29T09:13:35;2.00;;;1.80;;
37309;SDS011;23195;47.744;7.358;2023-07-29T09:16:01;3.73;;;2.23;;
37309;SDS011;23195;47.744;7.358;2023-07-29T09:18:27;2.60;;;2.40;;
37309;SDS011;23195;47.744;7.358;2023-07-29T09:20:53;2.30;;;2.10;;
37309;SDS011;23195;47.744;7.358;2023-07-29T09:23:19;2.40;;;2.20;;
37309;SDS011;23195;47.744;7.358;2023-07-29T09:25:48;2.60;;;2.40;;
37309;SDS011;23195;47.744;7.358;2023-07-29T09:28:15;2.60;;;2.07;;
37309;SDS011;23195;47.744;7.358;2023-07-29T09:30:42;2.30;;;2.10;;
37309;SDS011;23195;47.744;7.358;2023-07-29T09:33:13;2.90;;;2.03;;
37309;SDS011;23195;47.744;7.358;2023-07-29T09:35:39;2.97;;;2.20;;
37309;SDS011;23195;47.744;7.358;2023-07-29T09:38:05;2.30;;;2.10;;
37309;SDS011;23195;47.744;7.358;2023-07-29T09:40:38;3.10;;;2.10;;
37309;SDS011;23195;47.744;7.358;2023-07-29T09:43:06;2.70;;;2.10;;
37309;SDS011;23195;47.744;7.358;2023-07-29T09:45:37;3.10;;;2.13;;
37309;SDS011;23195;47.744;7.358;2023-07-29T09:48:11;2.20;;;1.90;;
37309;SDS011;23195;47.744;7.358;2023-07-29T09:50:37;2.40;;;2.20;;
37309;SDS011;23195;47.744;7.358;2023-07-29T09:53:02;3.73;;;2.37;;
37309;SDS011;23195;47.744;7.358;2023-07-29T09:55:32;2.27;;;2.07;;
37309;SDS011;23195;47.744;7.358;2023-07-29T09:57:59;2.27;;;1.80;;
37309;SDS011;23195;47.744;7.358;2023-07-29T10:00:28;3.23;;;1.90;;
37309;SDS011;23195;47.744;7.358;2023-07-29T10:02:54;2.60;;;2.40;;
37309;SDS011;23195;47.744;7.358;2023-07-29T10:05:22;2.50;;;2.30;;
37309;SDS011;23195;47.744;7.358;2023-07-29T10:07:48;2.30;;;2.20;;
37309;SDS011;23195;47.744;7.358;2023-07-29T10:10:15;2.97;;;2.30;;
37309;SDS011;23195;47.744;7.358;2023-07-29T10:12:44;2.10;;;1.90;;
37309;SDS011;23195;47.744;7.358;2023-07-29T10:15:11;2.50;;;1.77;;
37309;SDS011;23195;47.744;7.358;2023-07-29T10:17:37;2.07;;;1.97;;
37309;SDS011;23195;47.744;7.358;2023-07-29T10:20:04;3.40;;;2.20;;
37309;SDS011;23195;47.744;7.358;2023-07-29T10:22:39;6.10;;;2.10;;
37309;SDS011;23195;47.744;7.358;2023-07-29T10:25:24;2.47;;;2.10;;
37309;SDS011;23195;47.744;7.358;2023-07-29T10:30:28;3.13;;;2.30;;
37309;SDS011;23195;47.744;7.358;2023-07-29T10:32:54;2.47;;;2.27;;
37309;SDS011;23195;47.744;7.358;2023-07-29T10:35:23;2.27;;;2.07;;
37309;SDS011;23195;47.744;7.358;2023-07-29T10:37:50;2.53;;;2.10;;
37309;SDS011;23195;47.744;7.358;2023-07-29T10:40:18;2.63;;;2.43;;
37309;SDS011;23195;47.744;7.358;2023-07-29T10:43:09;2.30;;;2.10;;
37309;SDS011;23195;47.744;7.358;2023-07-29T10:45:36;4.07;;;2.40;;
37309;SDS011;23195;47.744;7.358;2023-07-29T10:48:13;4.90;;;3.17;;
37309;SDS011;23195;47.744;7.358;2023-07-29T10:54:09;5.07;;;4.53;;
37309;SDS011;23195;47.744;7.358;2023-07-29T10:56:43;3.90;;;3.40;;
37309;SDS011;23195;47.744;7.358;2023-07-29T11:01:42;3.97;;;2.97;;
37309;SDS011;23195;47.744;7.358;2023-07-29T11:09:45;5.27;;;2.27;;
37309;SDS011;23195;47.744;7.358;2023-07-29T11:20:14;2.17;;;1.80;;
37309;SDS011;23195;47.744;7.358;2023-07-29T11:22:43;2.20;;;2.00;;
37309;SDS011;23195;47.744;7.358;2023-07-29T11:25:10;2.33;;;1.80;;
37309;SDS011;23195;47.744;7.358;2023-07-29T11:27:38;2.57;;;1.83;;
37309;SDS011;23195;47.744;7.358;2023-07-29T11:30:08;2.10;;;1.90;;
37309;SDS011;23195;47.744;7.358;2023-07-29T11:32:54;2.80;;;2.10;;
37309;SDS011;23195;47.744;7.358;2023-07-29T11:35:20;3.70;;;1.80;;
37309;SDS011;23195;47.744;7.358;2023-07-29T11:37:54;1.90;;;1.80;;
37309;SDS011;23195;47.744;7.358;2023-07-29T11:40:27;3.83;;;2.20;;
37309;SDS011;23195;47.744;7.358;2023-07-29T11:45:30;2.40;;;2.20;;
37309;SDS011;23195;47.744;7.358;2023-07-29T11:48:01;2.30;;;2.10;;
37309;SDS011;23195;47.744;7.358;2023-07-29T11:50:27;2.13;;;1.97;;
37309;SDS011;23195;47.744;7.358;2023-07-29T11:52:53;2.00;;;1.90;;
37309;SDS011;23195;47.744;7.358;2023-07-29T11:55:19;2.27;;;2.07;;
37309;SDS011;23195;47.744;7.358;2023-07-29T11:57:45;2.13;;;1.90;;
37309;SDS011;23195;47.744;7.358;2023-07-29T12:00:19;1.97;;;1.77;;
37309;SDS011;23195;47.744;7.358;2023-07-29T12:02:46;2.27;;;2.07;;
37309;SDS011;23195;47.744;7.358;2023-07-29T12:05:14;2.10;;;1.70;;
37309;SDS011;23195;47.744;7.358;2023-07-29T12:07:41;2.13;;;1.97;;
37309;SDS011;23195;47.744;7.358;2023-07-29T12:10:08;3.10;;;2.03;;
37309;SDS011;23195;47.744;7.358;2023-07-29T12:12:44;2.47;;;2.10;;
37309;SDS011;23195;47.744;7.358;2023-07-29T12:15:13;1.90;;;1.80;;
37309;SDS011;23195;47.744;7.358;2023-07-29T12:17:47;2.67;;;2.10;;
37309;SDS011;23195;47.744;7.358;2023-07-29T12:20:13;2.30;;;2.10;;
37309;SDS011;23195;47.744;7.358;2023-07-29T12:22:42;2.33;;;1.90;;
37309;SDS011;23195;47.744;7.358;2023-07-29T12:25:08;2.73;;;2.00;;
37309;SDS011;23195;47.744;7.358;2023-07-29T12:27:34;2.10;;;1.90;;
37309;SDS011;23195;47.744;7.358;2023-07-29T12:30:00;4.77;;;2.20;;
37309;SDS011;23195;47.744;7.358;2023-07-29T12:32:29;1.83;;;1.73;;
37309;SDS011;23195;47.744;7.358;2023-07-29T12:34:55;2.53;;;1.90;;
37309;SDS011;23195;47.744;7.358;2023-07-29T12:37:30;2.13;;;1.93;;
37309;SDS011;23195;47.744;7.358;2023-07-29T12:39:58;3.00;;;2.00;;
37309;SDS011;23195;47.744;7.358;2023-07-29T12:42:23;2.17;;;1.97;;
37309;SDS011;23195;47.744;7.358;2023-07-29T12:44:49;2.00;;;1.90;;
37309;SDS011;23195;47.744;7.358;2023-07-29T12:47:15;2.30;;;2.10;;
37309;SDS011;23195;47.744;7.358;2023-07-29T12:49:41;2.00;;;1.90;;
37309;SDS011;23195;47.744;7.358;2023-07-29T12:52:06;2.20;;;2.00;;
37309;SDS011;23195;47.744;7.358;2023-07-29T12:54:35;2.13;;;1.93;;
37309;SDS011;23195;47.744;7.358;2023-07-29T12:57:01;2.20;;;2.00;;
37309;SDS011;23195;47.744;7.358;2023-07-29T12:59:27;2.30;;;2.10;;
37309;SDS011;23195;47.744;7.358;2023-07-29T13:01:52;2.10;;;1.90;;
37309;SDS011;23195;47.744;7.358;2023-07-29T13:04:18;2.30;;;2.10;;
37309;SDS011;23195;47.744;7.358;2023-07-29T13:06:44;6.03;;;2.03;;
37309;SDS011;23195;47.744;7.358;2023-07-29T13:09:10;2.00;;;1.80;;
37309;SDS011;23195;47.744;7.358;2023-07-29T13:11:35;1.90;;;1.80;;
37309;SDS011;23195;47.744;7.358;2023-07-29T13:14:01;3.47;;;2.03;;
37309;SDS011;23195;47.744;7.358;2023-07-29T13:16:27;2.07;;;1.73;;
37309;SDS011;23195;47.744;7.358;2023-07-29T13:18:56;1.90;;;1.80;;
37309;SDS011;23195;47.744;7.358;2023-07-29T13:21:24;2.27;;;1.97;;
37309;SDS011;23195;47.744;7.358;2023-07-29T13:23:50;2.10;;;1.90;;
37309;SDS011;23195;47.744;7.358;2023-07-29T13:26:16;2.67;;;2.10;;
37309;SDS011;23195;47.744;7.358;2023-07-29T13:28:42;3.10;;;1.63;;
37309;SDS011;23195;47.744;7.358;2023-07-29T13:31:08;3.27;;;2.07;;
37309;SDS011;23195;47.744;7.358;2023-07-29T13:33:34;2.20;;;2.00;;
37309;SDS011;23195;47.744;7.358;2023-07-29T13:36:02;2.70;;;1.90;;
37309;SDS011;23195;47.744;7.358;2023-07-29T13:38:28;2.93;;;2.27;;
37309;SDS011;23195;47.744;7.358;2023-07-29T13:40:54;4.63;;;1.97;;
37309;SDS011;23195;47.744;7.358;2023-07-29T13:43:21;3.70;;;2.00;;
37309;SDS011;23195;47.744;7.358;2023-07-29T13:45:47;4.10;;;2.00;;
37309;SDS011;23195;47.744;7.358;2023-07-29T13:48:15;2.37;;;2.17;;
37309;SDS011;23195;47.744;7.358;2023-07-29T13:50:43;2.90;;;2.10;;
37309;SDS011;23195;47.744;7.358;2023-07-29T13:53:09;2.30;;;2.10;;
37309;SDS011;23195;47.744;7.358;2023-07-29T13:55:35;3.00;;;2.40;;
37309;SDS011;23195;47.744;7.358;2023-07-29T13:58:01;2.60;;;2.40;;
37309;SDS011;23195;47.744;7.358;2023-07-29T14:00:27;2.97;;;2.30;;
37309;SDS011;23195;47.744;7.358;2023-07-29T14:02:53;2.73;;;2.40;;
37309;SDS011;23195;47.744;7.358;2023-07-29T14:05:19;2.57;;;2.37;;
37309;SDS011;23195;47.744;7.358;2023-07-29T14:07:45;3.00;;;2.00;;
37309;SDS011;23195;47.744;7.358;2023-07-29T14:10:10;3.13;;;2.57;;
37309;SDS011;23195;47.744;7.358;2023-07-29T14:12:36;3.83;;;2.60;;
37309;SDS011;23195;47.744;7.358;2023-07-29T14:15:02;2.53;;;2.30;;
37309;SDS011;23195;47.744;7.358;2023-07-29T14:17:29;2.60;;;2.40;;
37309;SDS011;23195;47.744;7.358;2023-07-29T14:19:55;2.30;;;2.10;;
37309;SDS011;23195;47.744;7.358;2023-07-29T14:22:21;3.37;;;2.57;;
37309;SDS011;23195;47.744;7.358;2023-07-29T14:24:47;2.40;;;1.90;;
37309;SDS011;23195;47.744;7.358;2023-07-29T14:27:12;1.90;;;1.80;;
37309;SDS011;23195;47.744;7.358;2023-07-29T14:29:39;3.37;;;1.77;;
37309;SDS011;23195;47.744;7.358;2023-07-29T14:32:05;3.10;;;2.00;;
37309;SDS011;23195;47.744;7.358;2023-07-29T14:34:38;2.37;;;1.83;;
37309;SDS011;23195;47.744;7.358;2023-07-29T14:37:08;2.50;;;1.90;;
37309;SDS011;23195;47.744;7.358;2023-07-29T14:39:34;1.80;;;1.70;;
37309;SDS011;23195;47.744;7.358;2023-07-29T14:42:03;1.70;;;1.60;;
37309;SDS011;23195;47.744;7.358;2023-07-29T14:44:29;3.90;;;1.83;;
37309;SDS011;23195;47.744;7.358;2023-07-29T14:46:55;1.93;;;1.83;;
37309;SDS011;23195;47.744;7.358;2023-07-29T14:49:21;2.40;;;2.20;;
37309;SDS011;23195;47.744;7.358;2023-07-29T14:51:47;3.33;;;2.43;;
37309;SDS011;23195;47.744;7.358;2023-07-29T14:54:13;3.63;;;2.60;;
37309;SDS011;23195;47.744;7.358;2023-07-29T14:56:38;2.60;;;2.40;;
37309;SDS011;23195;47.744;7.358;2023-07-29T14:59:04;3.37;;;3.07;;
37309;SDS011;23195;47.744;7.358;2023-07-29T15:01:30;5.30;;;3.50;;
37309;SDS011;23195;47.744;7.358;2023-07-29T15:03:56;3.30;;;2.90;;
37309;SDS011;23195;47.744;7.358;2023-07-29T15:06:22;3.30;;;2.67;;
37309;SDS011;23195;47.744;7.358;2023-07-29T15:08:48;4.57;;;2.73;;
37309;SDS011;23195;47.744;7.358;2023-07-29T15:11:14;2.87;;;2.63;;
37309;SDS011;23195;47.744;7.358;2023-07-29T15:13:40;2.87;;;2.67;;
37309;SDS011;23195;47.744;7.358;2023-07-29T15:16:08;2.93;;;2.63;;
37309;SDS011;23195;47.744;7.358;2023-07-29T15:18:34;4.13;;;2.50;;
37309;SDS011;23195;47.744;7.358;2023-07-29T15:21:02;3.87;;;2.87;;
37309;SDS011;23195;47.744;7.358;2023-07-29T15:23:28;3.10;;;2.80;;
37309;SDS011;23195;47.744;7.358;2023-07-29T15:25:54;3.30;;;2.63;;
37309;SDS011;23195;47.744;7.358;2023-07-29T15:28:20;3.47;;;2.80;;
37309;SDS011;23195;47.744;7.358;2023-07-29T15:30:46;4.07;;;3.00;;